sensor_id;sensor_type;location;lat;lon;timestamp;P1;durP1;ratioP1;P2;durP2;ratioP2
59042;SDS011;44826;51.596;5.624;2022-07-06T00:01:29;3.08;;;1.15;;
59042;SDS011;44826;51.596;5.624;2022-07-06T00:03:54;2.90;;;1.35;;
59042;SDS011;44826;51.596;5.624;2022-07-06T00:06:20;4.38;;;1.60;;
59042;SDS011;44826;51.596;5.624;2022-07-06T00:08:45;4.50;;;1.80;;
59042;SDS011;44826;51.596;5.624;2022-07-06T00:11:10;3.50;;;1.50;;
59042;SDS011;44826;51.596;5.624;2022-07-06T00:13:36;3.83;;;1.70;;
59042;SDS011;44826;51.596;5.624;2022-07-06T00:16:02;4.10;;;1.77;;
59042;SDS011;44826;51.596;5.624;2022-07-06T00:18:28;5.05;;;2.00;;
59042;SDS011;44826;51.596;5.624;2022-07-06T00:20:53;2.70;;;1.95;;
59042;SDS011;44826;51.596;5.624;2022-07-06T00:23:18;4.35;;;2.13;;
59042;SDS011;44826;51.596;5.624;2022-07-06T00:25:44;3.30;;;2.22;;
59042;SDS011;44826;51.596;5.624;2022-07-06T00:28:09;6.00;;;2.58;;
59042;SDS011;44826;51.596;5.624;2022-07-06T00:30:34;3.70;;;1.92;;
59042;SDS011;44826;51.596;5.624;2022-07-06T00:32:59;5.38;;;2.10;;
59042;SDS011;44826;51.596;5.624;2022-07-06T00:35:25;3.47;;;1.98;;
59042;SDS011;44826;51.596;5.624;2022-07-06T00:37:51;5.90;;;2.03;;
59042;SDS011;44826;51.596;5.624;2022-07-06T00:40:16;4.40;;;2.10;;
59042;SDS011;44826;51.596;5.624;2022-07-06T00:42:43;3.95;;;2.05;;
59042;SDS011;44826;51.596;5.624;2022-07-06T00:45:09;2.78;;;2.08;;
59042;SDS011;44826;51.596;5.624;2022-07-06T00:47:36;4.47;;;2.05;;
59042;SDS011;44826;51.596;5.624;2022-07-06T00:50:02;4.78;;;2.25;;
59042;SDS011;44826;51.596;5.624;2022-07-06T00:55:13;3.55;;;2.20;;
59042;SDS011;44826;51.596;5.624;2022-07-06T00:57:39;3.40;;;2.10;;
59042;SDS011;44826;51.596;5.624;2022-07-06T01:00:07;2.58;;;1.90;;
59042;SDS011;44826;51.596;5.624;2022-07-06T01:02:34;4.43;;;2.17;;
59042;SDS011;44826;51.596;5.624;2022-07-06T01:05:01;4.70;;;2.13;;
59042;SDS011;44826;51.596;5.624;2022-07-06T01:07:28;4.57;;;2.35;;
59042;SDS011;44826;51.596;5.624;2022-07-06T01:09:54;5.30;;;2.05;;
59042;SDS011;44826;51.596;5.624;2022-07-06T01:12:20;6.00;;;2.30;;
59042;SDS011;44826;51.596;5.624;2022-07-06T01:14:46;8.18;;;2.45;;
59042;SDS011;44826;51.596;5.624;2022-07-06T01:17:14;7.43;;;2.10;;
59042;SDS011;44826;51.596;5.624;2022-07-06T01:19:40;6.75;;;2.15;;
59042;SDS011;44826;51.596;5.624;2022-07-06T01:22:05;7.10;;;2.65;;
59042;SDS011;44826;51.596;5.624;2022-07-06T01:24:31;5.53;;;2.17;;
59042;SDS011;44826;51.596;5.624;2022-07-06T01:26:57;3.85;;;2.22;;
59042;SDS011;44826;51.596;5.624;2022-07-06T01:29:22;3.92;;;2.00;;
59042;SDS011;44826;51.596;5.624;2022-07-06T01:31:48;3.25;;;2.22;;
59042;SDS011;44826;51.596;5.624;2022-07-06T01:34:15;3.97;;;2.25;;
59042;SDS011;44826;51.596;5.624;2022-07-06T01:36:41;5.88;;;2.20;;
59042;SDS011;44826;51.596;5.624;2022-07-06T01:39:07;5.03;;;2.30;;
59042;SDS011;44826;51.596;5.624;2022-07-06T01:41:33;5.03;;;1.98;;
59042;SDS011;44826;51.596;5.624;2022-07-06T01:43:59;3.67;;;2.20;;
59042;SDS011;44826;51.596;5.624;2022-07-06T01:46:24;2.90;;;2.05;;
59042;SDS011;44826;51.596;5.624;2022-07-06T01:48:50;3.78;;;2.20;;
59042;SDS011;44826;51.596;5.624;2022-07-06T01:51:16;4.20;;;1.90;;
59042;SDS011;44826;51.596;5.624;2022-07-06T01:53:41;4.85;;;2.00;;
59042;SDS011;44826;51.596;5.624;2022-07-06T01:56:06;6.40;;;2.17;;
59042;SDS011;44826;51.596;5.624;2022-07-06T01:58:32;3.33;;;1.90;;
59042;SDS011;44826;51.596;5.624;2022-07-06T02:00:57;4.72;;;2.17;;
59042;SDS011;44826;51.596;5.624;2022-07-06T02:03:23;6.75;;;2.50;;
59042;SDS011;44826;51.596;5.624;2022-07-06T02:05:48;4.93;;;2.22;;
59042;SDS011;44826;51.596;5.624;2022-07-06T02:08:14;5.57;;;2.22;;
59042;SDS011;44826;51.596;5.624;2022-07-06T02:10:39;3.42;;;2.17;;
59042;SDS011;44826;51.596;5.624;2022-07-06T02:13:05;4.72;;;2.20;;
59042;SDS011;44826;51.596;5.624;2022-07-06T02:15:30;3.70;;;2.22;;
59042;SDS011;44826;51.596;5.624;2022-07-06T02:17:55;3.65;;;2.25;;
59042;SDS011;44826;51.596;5.624;2022-07-06T02:20:21;3.35;;;2.22;;
59042;SDS011;44826;51.596;5.624;2022-07-06T02:22:46;2.85;;;2.10;;
59042;SDS011;44826;51.596;5.624;2022-07-06T02:25:11;4.93;;;2.20;;
59042;SDS011;44826;51.596;5.624;2022-07-06T02:27:36;5.68;;;2.60;;
59042;SDS011;44826;51.596;5.624;2022-07-06T02:30:02;5.25;;;2.38;;
59042;SDS011;44826;51.596;5.624;2022-07-06T02:32:28;4.15;;;2.50;;
59042;SDS011;44826;51.596;5.624;2022-07-06T02:34:53;2.90;;;2.22;;
59042;SDS011;44826;51.596;5.624;2022-07-06T02:37:19;5.95;;;2.50;;
59042;SDS011;44826;51.596;5.624;2022-07-06T02:39:44;3.53;;;2.50;;
59042;SDS011;44826;51.596;5.624;2022-07-06T02:42:09;3.33;;;2.38;;
59042;SDS011;44826;51.596;5.624;2022-07-06T02:44:34;5.28;;;2.20;;
59042;SDS011;44826;51.596;5.624;2022-07-06T02:47:00;5.07;;;2.47;;
59042;SDS011;44826;51.596;5.624;2022-07-06T02:49:25;3.58;;;2.30;;
59042;SDS011;44826;51.596;5.624;2022-07-06T02:51:50;6.60;;;2.58;;
59042;SDS011;44826;51.596;5.624;2022-07-06T02:54:15;5.10;;;2.60;;
59042;SDS011;44826;51.596;5.624;2022-07-06T02:56:41;6.25;;;2.53;;
59042;SDS011;44826;51.596;5.624;2022-07-06T02:59:06;7.13;;;2.53;;
59042;SDS011;44826;51.596;5.624;2022-07-06T03:01:31;4.38;;;2.30;;
59042;SDS011;44826;51.596;5.624;2022-07-06T03:03:56;5.50;;;2.50;;
59042;SDS011;44826;51.596;5.624;2022-07-06T03:06:22;5.93;;;2.47;;
59042;SDS011;44826;51.596;5.624;2022-07-06T03:08:47;4.60;;;2.40;;
59042;SDS011;44826;51.596;5.624;2022-07-06T03:11:12;6.93;;;2.50;;
59042;SDS011;44826;51.596;5.624;2022-07-06T03:13:38;11.13;;;2.67;;
59042;SDS011;44826;51.596;5.624;2022-07-06T03:16:03;7.88;;;2.70;;
59042;SDS011;44826;51.596;5.624;2022-07-06T03:18:28;6.30;;;2.90;;
59042;SDS011;44826;51.596;5.624;2022-07-06T03:20:54;4.40;;;2.85;;
59042;SDS011;44826;51.596;5.624;2022-07-06T03:23:19;4.18;;;2.70;;
59042;SDS011;44826;51.596;5.624;2022-07-06T03:25:44;5.45;;;3.15;;
59042;SDS011;44826;51.596;5.624;2022-07-06T03:28:10;5.32;;;2.97;;
59042;SDS011;44826;51.596;5.624;2022-07-06T03:30:35;5.20;;;3.00;;
59042;SDS011;44826;51.596;5.624;2022-07-06T03:33:01;5.53;;;3.38;;
59042;SDS011;44826;51.596;5.624;2022-07-06T03:35:26;5.05;;;3.00;;
59042;SDS011;44826;51.596;5.624;2022-07-06T03:37:51;10.50;;;3.55;;
59042;SDS011;44826;51.596;5.624;2022-07-06T03:40:17;7.32;;;3.47;;
59042;SDS011;44826;51.596;5.624;2022-07-06T03:42:42;5.45;;;3.30;;
59042;SDS011;44826;51.596;5.624;2022-07-06T03:45:08;4.60;;;2.97;;
59042;SDS011;44826;51.596;5.624;2022-07-06T03:47:34;6.50;;;3.10;;
59042;SDS011;44826;51.596;5.624;2022-07-06T03:49:59;4.75;;;3.08;;
59042;SDS011;44826;51.596;5.624;2022-07-06T03:52:24;5.38;;;3.30;;
59042;SDS011;44826;51.596;5.624;2022-07-06T03:54:49;6.93;;;3.10;;
59042;SDS011;44826;51.596;5.624;2022-07-06T03:57:15;5.05;;;3.08;;
59042;SDS011;44826;51.596;5.624;2022-07-06T03:59:40;5.03;;;3.30;;
59042;SDS011;44826;51.596;5.624;2022-07-06T04:02:05;6.43;;;3.15;;
59042;SDS011;44826;51.596;5.624;2022-07-06T04:04:31;9.30;;;3.20;;
59042;SDS011;44826;51.596;5.624;2022-07-06T04:06:58;6.53;;;3.17;;
59042;SDS011;44826;51.596;5.624;2022-07-06T04:09:23;6.90;;;3.40;;
59042;SDS011;44826;51.596;5.624;2022-07-06T04:11:48;5.50;;;2.88;;
59042;SDS011;44826;51.596;5.624;2022-07-06T04:14:14;5.13;;;2.97;;
59042;SDS011;44826;51.596;5.624;2022-07-06T04:16:39;4.00;;;2.92;;
59042;SDS011;44826;51.596;5.624;2022-07-06T04:19:04;5.47;;;3.13;;
59042;SDS011;44826;51.596;5.624;2022-07-06T04:21:29;6.15;;;3.20;;
59042;SDS011;44826;51.596;5.624;2022-07-06T04:23:55;6.32;;;3.58;;
59042;SDS011;44826;51.596;5.624;2022-07-06T04:26:20;4.50;;;3.03;;
59042;SDS011;44826;51.596;5.624;2022-07-06T04:28:45;5.32;;;3.30;;
59042;SDS011;44826;51.596;5.624;2022-07-06T04:31:11;4.45;;;3.30;;
59042;SDS011;44826;51.596;5.624;2022-07-06T04:33:39;4.55;;;3.13;;
59042;SDS011;44826;51.596;5.624;2022-07-06T04:36:05;4.88;;;2.90;;
59042;SDS011;44826;51.596;5.624;2022-07-06T04:38:30;5.25;;;3.35;;
59042;SDS011;44826;51.596;5.624;2022-07-06T04:40:55;4.70;;;3.00;;
59042;SDS011;44826;51.596;5.624;2022-07-06T04:43:21;7.75;;;3.25;;
59042;SDS011;44826;51.596;5.624;2022-07-06T04:45:46;6.07;;;3.10;;
59042;SDS011;44826;51.596;5.624;2022-07-06T04:48:12;5.40;;;3.10;;
59042;SDS011;44826;51.596;5.624;2022-07-06T04:50:37;6.07;;;3.30;;
59042;SDS011;44826;51.596;5.624;2022-07-06T04:53:03;6.85;;;3.38;;
59042;SDS011;44826;51.596;5.624;2022-07-06T04:55:28;5.40;;;3.08;;
59042;SDS011;44826;51.596;5.624;2022-07-06T04:57:54;6.90;;;3.15;;
59042;SDS011;44826;51.596;5.624;2022-07-06T05:00:20;5.78;;;3.17;;
59042;SDS011;44826;51.596;5.624;2022-07-06T05:02:46;5.53;;;3.20;;
59042;SDS011;44826;51.596;5.624;2022-07-06T05:05:11;5.05;;;3.20;;
59042;SDS011;44826;51.596;5.624;2022-07-06T05:07:37;8.00;;;3.10;;
59042;SDS011;44826;51.596;5.624;2022-07-06T05:10:05;6.45;;;3.35;;
59042;SDS011;44826;51.596;5.624;2022-07-06T05:12:31;5.80;;;3.03;;
59042;SDS011;44826;51.596;5.624;2022-07-06T05:14:57;8.35;;;3.03;;
59042;SDS011;44826;51.596;5.624;2022-07-06T05:17:22;8.20;;;3.30;;
59042;SDS011;44826;51.596;5.624;2022-07-06T05:19:48;6.55;;;3.30;;
59042;SDS011;44826;51.596;5.624;2022-07-06T05:22:13;4.57;;;3.00;;
59042;SDS011;44826;51.596;5.624;2022-07-06T05:24:38;9.00;;;3.30;;
59042;SDS011;44826;51.596;5.624;2022-07-06T05:27:04;5.68;;;3.28;;
59042;SDS011;44826;51.596;5.624;2022-07-06T05:29:29;5.40;;;3.05;;
59042;SDS011;44826;51.596;5.624;2022-07-06T05:31:54;4.65;;;2.80;;
59042;SDS011;44826;51.596;5.624;2022-07-06T05:34:19;4.47;;;3.05;;
59042;SDS011;44826;51.596;5.624;2022-07-06T05:36:45;5.03;;;2.90;;
59042;SDS011;44826;51.596;5.624;2022-07-06T05:39:10;3.80;;;2.72;;
59042;SDS011;44826;51.596;5.624;2022-07-06T05:41:35;5.97;;;3.10;;
59042;SDS011;44826;51.596;5.624;2022-07-06T05:44:01;6.20;;;3.00;;
59042;SDS011;44826;51.596;5.624;2022-07-06T05:46:26;6.15;;;3.03;;
59042;SDS011;44826;51.596;5.624;2022-07-06T05:48:53;5.28;;;2.90;;
59042;SDS011;44826;51.596;5.624;2022-07-06T05:51:37;6.57;;;3.60;;
59042;SDS011;44826;51.596;5.624;2022-07-06T05:54:02;6.13;;;2.80;;
59042;SDS011;44826;51.596;5.624;2022-07-06T05:56:27;4.20;;;2.88;;
59042;SDS011;44826;51.596;5.624;2022-07-06T05:58:52;6.03;;;3.17;;
59042;SDS011;44826;51.596;5.624;2022-07-06T06:01:18;3.08;;;2.70;;
59042;SDS011;44826;51.596;5.624;2022-07-06T06:03:43;8.13;;;2.70;;
59042;SDS011;44826;51.596;5.624;2022-07-06T06:06:08;3.67;;;2.65;;
59042;SDS011;44826;51.596;5.624;2022-07-06T06:08:34;9.30;;;2.97;;
59042;SDS011;44826;51.596;5.624;2022-07-06T06:10:59;5.18;;;2.85;;
59042;SDS011;44826;51.596;5.624;2022-07-06T06:13:24;4.60;;;2.92;;
59042;SDS011;44826;51.596;5.624;2022-07-06T06:15:49;5.22;;;2.53;;
59042;SDS011;44826;51.596;5.624;2022-07-06T06:18:15;6.32;;;2.70;;
59042;SDS011;44826;51.596;5.624;2022-07-06T06:20:42;4.65;;;2.70;;
59042;SDS011;44826;51.596;5.624;2022-07-06T06:23:07;5.32;;;2.80;;
59042;SDS011;44826;51.596;5.624;2022-07-06T06:25:33;6.95;;;2.90;;
59042;SDS011;44826;51.596;5.624;2022-07-06T06:28:02;5.18;;;2.63;;
59042;SDS011;44826;51.596;5.624;2022-07-06T06:30:29;6.03;;;2.63;;
59042;SDS011;44826;51.596;5.624;2022-07-06T06:33:11;5.13;;;2.47;;
59042;SDS011;44826;51.596;5.624;2022-07-06T06:35:38;4.18;;;2.30;;
59042;SDS011;44826;51.596;5.624;2022-07-06T06:38:08;3.80;;;2.20;;
59042;SDS011;44826;51.596;5.624;2022-07-06T06:40:33;4.07;;;1.90;;
59042;SDS011;44826;51.596;5.624;2022-07-06T06:42:58;4.30;;;2.33;;
59042;SDS011;44826;51.596;5.624;2022-07-06T06:45:24;3.47;;;1.60;;
59042;SDS011;44826;51.596;5.624;2022-07-06T06:47:49;2.33;;;1.20;;
59042;SDS011;44826;51.596;5.624;2022-07-06T06:50:14;1.67;;;1.10;;
59042;SDS011;44826;51.596;5.624;2022-07-06T06:52:40;2.38;;;0.90;;
59042;SDS011;44826;51.596;5.624;2022-07-06T06:55:05;4.05;;;0.80;;
59042;SDS011;44826;51.596;5.624;2022-07-06T06:57:31;3.65;;;0.90;;
59042;SDS011;44826;51.596;5.624;2022-07-06T06:59:56;2.17;;;0.80;;
59042;SDS011;44826;51.596;5.624;2022-07-06T07:02:22;2.70;;;0.95;;
59042;SDS011;44826;51.596;5.624;2022-07-06T07:04:47;2.35;;;0.80;;
59042;SDS011;44826;51.596;5.624;2022-07-06T07:07:13;2.03;;;0.80;;
59042;SDS011;44826;51.596;5.624;2022-07-06T07:09:38;2.97;;;0.80;;
59042;SDS011;44826;51.596;5.624;2022-07-06T07:12:04;1.98;;;0.70;;
59042;SDS011;44826;51.596;5.624;2022-07-06T07:14:30;2.55;;;0.90;;
59042;SDS011;44826;51.596;5.624;2022-07-06T07:16:55;3.08;;;1.02;;
59042;SDS011;44826;51.596;5.624;2022-07-06T07:19:20;2.67;;;0.80;;
59042;SDS011;44826;51.596;5.624;2022-07-06T07:21:46;1.60;;;0.80;;
59042;SDS011;44826;51.596;5.624;2022-07-06T07:24:11;9.07;;;0.98;;
59042;SDS011;44826;51.596;5.624;2022-07-06T07:26:36;1.50;;;0.73;;
59042;SDS011;44826;51.596;5.624;2022-07-06T07:29:02;1.90;;;0.50;;
59042;SDS011;44826;51.596;5.624;2022-07-06T07:31:28;2.08;;;0.60;;
59042;SDS011;44826;51.596;5.624;2022-07-06T07:33:53;2.47;;;0.85;;
59042;SDS011;44826;51.596;5.624;2022-07-06T07:36:21;1.83;;;0.80;;
59042;SDS011;44826;51.596;5.624;2022-07-06T07:38:47;1.75;;;0.70;;
59042;SDS011;44826;51.596;5.624;2022-07-06T07:41:12;1.23;;;0.60;;
59042;SDS011;44826;51.596;5.624;2022-07-06T07:43:39;2.05;;;0.70;;
59042;SDS011;44826;51.596;5.624;2022-07-06T07:46:04;2.88;;;0.60;;
59042;SDS011;44826;51.596;5.624;2022-07-06T07:48:29;1.05;;;0.50;;
59042;SDS011;44826;51.596;5.624;2022-07-06T07:50:54;3.03;;;0.60;;
59042;SDS011;44826;51.596;5.624;2022-07-06T07:53:20;1.48;;;0.70;;
59042;SDS011;44826;51.596;5.624;2022-07-06T07:55:45;1.45;;;0.60;;
59042;SDS011;44826;51.596;5.624;2022-07-06T07:58:10;1.00;;;0.60;;
59042;SDS011;44826;51.596;5.624;2022-07-06T08:00:36;2.25;;;0.73;;
59042;SDS011;44826;51.596;5.624;2022-07-06T08:03:01;1.55;;;0.60;;
59042;SDS011;44826;51.596;5.624;2022-07-06T08:05:26;1.35;;;0.60;;
59042;SDS011;44826;51.596;5.624;2022-07-06T08:07:52;1.50;;;0.70;;
59042;SDS011;44826;51.596;5.624;2022-07-06T08:10:17;1.80;;;0.77;;
59042;SDS011;44826;51.596;5.624;2022-07-06T08:12:42;3.47;;;1.00;;
59042;SDS011;44826;51.596;5.624;2022-07-06T08:15:08;3.03;;;0.85;;
59042;SDS011;44826;51.596;5.624;2022-07-06T08:17:33;2.97;;;0.93;;
59042;SDS011;44826;51.596;5.624;2022-07-06T08:19:59;1.08;;;0.90;;
59042;SDS011;44826;51.596;5.624;2022-07-06T08:22:24;3.25;;;0.80;;
59042;SDS011;44826;51.596;5.624;2022-07-06T08:24:49;2.03;;;0.65;;
59042;SDS011;44826;51.596;5.624;2022-07-06T08:27:15;2.05;;;0.68;;
59042;SDS011;44826;51.596;5.624;2022-07-06T08:29:40;3.03;;;0.70;;
59042;SDS011;44826;51.596;5.624;2022-07-06T08:32:06;2.65;;;0.90;;
59042;SDS011;44826;51.596;5.624;2022-07-06T08:34:32;2.70;;;0.80;;
59042;SDS011;44826;51.596;5.624;2022-07-06T08:36:57;1.23;;;0.70;;
59042;SDS011;44826;51.596;5.624;2022-07-06T08:39:23;1.67;;;0.70;;
59042;SDS011;44826;51.596;5.624;2022-07-06T08:41:49;0.75;;;0.55;;
59042;SDS011;44826;51.596;5.624;2022-07-06T08:44:16;0.98;;;0.40;;
59042;SDS011;44826;51.596;5.624;2022-07-06T08:46:42;1.08;;;0.50;;
59042;SDS011;44826;51.596;5.624;2022-07-06T08:49:08;3.10;;;0.60;;
59042;SDS011;44826;51.596;5.624;2022-07-06T08:51:37;1.83;;;0.63;;
59042;SDS011;44826;51.596;5.624;2022-07-06T08:54:03;3.33;;;0.55;;
59042;SDS011;44826;51.596;5.624;2022-07-06T08:56:29;1.73;;;0.50;;
59042;SDS011;44826;51.596;5.624;2022-07-06T08:58:54;2.08;;;0.50;;
59042;SDS011;44826;51.596;5.624;2022-07-06T09:01:20;2.00;;;0.50;;
59042;SDS011;44826;51.596;5.624;2022-07-06T09:03:46;1.20;;;0.50;;
59042;SDS011;44826;51.596;5.624;2022-07-06T09:06:14;1.42;;;0.50;;
59042;SDS011;44826;51.596;5.624;2022-07-06T09:08:41;0.77;;;0.40;;
59042;SDS011;44826;51.596;5.624;2022-07-06T09:11:08;2.67;;;0.50;;
59042;SDS011;44826;51.596;5.624;2022-07-06T09:13:33;3.78;;;0.50;;
59042;SDS011;44826;51.596;5.624;2022-07-06T09:16:11;2.60;;;0.40;;
59042;SDS011;44826;51.596;5.624;2022-07-06T09:18:38;1.35;;;0.40;;
59042;SDS011;44826;51.596;5.624;2022-07-06T09:21:04;0.65;;;0.30;;
59042;SDS011;44826;51.596;5.624;2022-07-06T09:23:32;0.30;;;0.30;;
59042;SDS011;44826;51.596;5.624;2022-07-06T09:25:59;1.10;;;0.50;;
59042;SDS011;44826;51.596;5.624;2022-07-06T09:28:43;1.17;;;0.30;;
59042;SDS011;44826;51.596;5.624;2022-07-06T09:31:09;1.45;;;0.45;;
59042;SDS011;44826;51.596;5.624;2022-07-06T09:33:35;2.83;;;0.40;;
59042;SDS011;44826;51.596;5.624;2022-07-06T09:36:01;1.13;;;0.40;;
59042;SDS011;44826;51.596;5.624;2022-07-06T09:38:27;0.85;;;0.40;;
59042;SDS011;44826;51.596;5.624;2022-07-06T09:40:53;1.63;;;0.50;;
59042;SDS011;44826;51.596;5.624;2022-07-06T09:43:19;2.10;;;0.60;;
59042;SDS011;44826;51.596;5.624;2022-07-06T09:45:51;1.70;;;0.47;;
59042;SDS011;44826;51.596;5.624;2022-07-06T09:48:19;1.40;;;0.43;;
59042;SDS011;44826;51.596;5.624;2022-07-06T09:50:55;0.93;;;0.30;;
59042;SDS011;44826;51.596;5.624;2022-07-06T09:53:23;0.57;;;0.30;;
59042;SDS011;44826;51.596;5.624;2022-07-06T09:55:51;1.05;;;0.30;;
59042;SDS011;44826;51.596;5.624;2022-07-06T09:58:19;1.70;;;0.32;;
59042;SDS011;44826;51.596;5.624;2022-07-06T10:00:46;1.10;;;0.40;;
59042;SDS011;44826;51.596;5.624;2022-07-06T10:03:12;1.42;;;0.30;;
59042;SDS011;44826;51.596;5.624;2022-07-06T10:05:38;0.80;;;0.30;;
59042;SDS011;44826;51.596;5.624;2022-07-06T10:08:06;1.25;;;0.28;;
59042;SDS011;44826;51.596;5.624;2022-07-06T10:10:34;1.83;;;0.40;;
59042;SDS011;44826;51.596;5.624;2022-07-06T10:13:00;2.30;;;0.30;;
59042;SDS011;44826;51.596;5.624;2022-07-06T10:15:27;1.13;;;0.30;;
59042;SDS011;44826;51.596;5.624;2022-07-06T10:17:56;0.95;;;0.38;;
59042;SDS011;44826;51.596;5.624;2022-07-06T10:20:22;0.93;;;0.30;;
59042;SDS011;44826;51.596;5.624;2022-07-06T10:22:48;0.65;;;0.30;;
59042;SDS011;44826;51.596;5.624;2022-07-06T10:25:17;1.35;;;0.40;;
59042;SDS011;44826;51.596;5.624;2022-07-06T10:27:44;1.17;;;0.30;;
59042;SDS011;44826;51.596;5.624;2022-07-06T10:30:11;1.83;;;0.32;;
59042;SDS011;44826;51.596;5.624;2022-07-06T10:32:37;1.48;;;0.43;;
59042;SDS011;44826;51.596;5.624;2022-07-06T10:35:05;0.98;;;0.40;;
59042;SDS011;44826;51.596;5.624;2022-07-06T10:37:31;0.30;;;0.30;;
59042;SDS011;44826;51.596;5.624;2022-07-06T10:39:58;1.25;;;0.30;;
59042;SDS011;44826;51.596;5.624;2022-07-06T10:42:46;0.75;;;0.28;;
59042;SDS011;44826;51.596;5.624;2022-07-06T10:45:20;0.65;;;0.30;;
59042;SDS011;44826;51.596;5.624;2022-07-06T10:48:15;0.50;;;0.30;;
59042;SDS011;44826;51.596;5.624;2022-07-06T10:53:11;1.00;;;0.20;;
59042;SDS011;44826;51.596;5.624;2022-07-06T10:55:42;0.73;;;0.30;;
59042;SDS011;44826;51.596;5.624;2022-07-06T10:58:09;1.48;;;0.38;;
59042;SDS011;44826;51.596;5.624;2022-07-06T11:00:52;1.17;;;0.30;;
59042;SDS011;44826;51.596;5.624;2022-07-06T11:16:16;0.47;;;0.30;;
59042;SDS011;44826;51.596;5.624;2022-07-06T11:18:46;1.35;;;0.30;;
59042;SDS011;44826;51.596;5.624;2022-07-06T11:21:23;1.98;;;0.45;;
59042;SDS011;44826;51.596;5.624;2022-07-06T11:23:56;1.85;;;0.57;;
59042;SDS011;44826;51.596;5.624;2022-07-06T11:26:23;2.60;;;0.32;;
59042;SDS011;44826;51.596;5.624;2022-07-06T11:28:48;0.68;;;0.40;;
59042;SDS011;44826;51.596;5.624;2022-07-06T11:31:18;1.67;;;0.40;;
59042;SDS011;44826;51.596;5.624;2022-07-06T11:33:46;0.52;;;0.32;;
59042;SDS011;44826;51.596;5.624;2022-07-06T11:36:13;4.22;;;0.40;;
59042;SDS011;44826;51.596;5.624;2022-07-06T11:38:41;0.60;;;0.30;;
59042;SDS011;44826;51.596;5.624;2022-07-06T11:41:08;0.73;;;0.43;;
59042;SDS011;44826;51.596;5.624;2022-07-06T11:43:33;1.17;;;0.43;;
59042;SDS011;44826;51.596;5.624;2022-07-06T11:45:59;1.85;;;0.40;;
59042;SDS011;44826;51.596;5.624;2022-07-06T11:48:25;2.45;;;0.50;;
59042;SDS011;44826;51.596;5.624;2022-07-06T11:51:03;2.33;;;0.50;;
59042;SDS011;44826;51.596;5.624;2022-07-06T11:53:28;1.20;;;0.52;;
59042;SDS011;44826;51.596;5.624;2022-07-06T11:55:54;1.13;;;0.70;;
59042;SDS011;44826;51.596;5.624;2022-07-06T11:58:21;0.95;;;0.30;;
59042;SDS011;44826;51.596;5.624;2022-07-06T12:03:33;3.53;;;0.60;;
59042;SDS011;44826;51.596;5.624;2022-07-06T12:06:00;1.10;;;0.57;;
59042;SDS011;44826;51.596;5.624;2022-07-06T12:08:29;2.38;;;0.60;;
59042;SDS011;44826;51.596;5.624;2022-07-06T12:10:54;3.55;;;0.73;;
59042;SDS011;44826;51.596;5.624;2022-07-06T12:13:20;1.08;;;0.40;;
59042;SDS011;44826;51.596;5.624;2022-07-06T12:15:46;2.15;;;0.50;;
59042;SDS011;44826;51.596;5.624;2022-07-06T12:18:11;1.95;;;0.50;;
59042;SDS011;44826;51.596;5.624;2022-07-06T12:20:37;2.17;;;0.57;;
59042;SDS011;44826;51.596;5.624;2022-07-06T12:23:02;0.80;;;0.40;;
59042;SDS011;44826;51.596;5.624;2022-07-06T12:25:29;1.45;;;0.57;;
59042;SDS011;44826;51.596;5.624;2022-07-06T12:27:55;2.08;;;0.40;;
59042;SDS011;44826;51.596;5.624;2022-07-06T12:30:20;1.98;;;0.50;;
59042;SDS011;44826;51.596;5.624;2022-07-06T12:32:46;1.77;;;0.50;;
59042;SDS011;44826;51.596;5.624;2022-07-06T12:35:11;1.75;;;0.55;;
59042;SDS011;44826;51.596;5.624;2022-07-06T12:37:37;1.48;;;0.40;;
59042;SDS011;44826;51.596;5.624;2022-07-06T12:40:11;1.55;;;0.40;;
59042;SDS011;44826;51.596;5.624;2022-07-06T12:42:45;1.50;;;0.50;;
59042;SDS011;44826;51.596;5.624;2022-07-06T12:45:12;2.30;;;0.45;;
59042;SDS011;44826;51.596;5.624;2022-07-06T12:47:37;0.57;;;0.30;;
59042;SDS011;44826;51.596;5.624;2022-07-06T12:50:08;2.90;;;0.60;;
59042;SDS011;44826;51.596;5.624;2022-07-06T12:52:36;2.33;;;0.50;;
59042;SDS011;44826;51.596;5.624;2022-07-06T12:55:02;2.38;;;0.50;;
59042;SDS011;44826;51.596;5.624;2022-07-06T12:57:36;0.93;;;0.50;;
59042;SDS011;44826;51.596;5.624;2022-07-06T13:00:08;0.73;;;0.30;;
59042;SDS011;44826;51.596;5.624;2022-07-06T13:02:34;2.67;;;0.52;;
59042;SDS011;44826;51.596;5.624;2022-07-06T13:05:06;1.60;;;0.57;;
59042;SDS011;44826;51.596;5.624;2022-07-06T13:10:06;1.33;;;0.40;;
59042;SDS011;44826;51.596;5.624;2022-07-06T13:12:32;3.08;;;0.50;;
59042;SDS011;44826;51.596;5.624;2022-07-06T13:14:58;1.05;;;0.40;;
59042;SDS011;44826;51.596;5.624;2022-07-06T13:17:23;0.85;;;0.22;;
59042;SDS011;44826;51.596;5.624;2022-07-06T13:19:49;2.53;;;0.32;;
59042;SDS011;44826;51.596;5.624;2022-07-06T13:22:14;3.67;;;0.40;;
59042;SDS011;44826;51.596;5.624;2022-07-06T13:24:40;2.17;;;0.50;;
59042;SDS011;44826;51.596;5.624;2022-07-06T13:27:05;1.65;;;0.47;;
59042;SDS011;44826;51.596;5.624;2022-07-06T13:29:31;1.65;;;0.43;;
59042;SDS011;44826;51.596;5.624;2022-07-06T13:31:56;1.90;;;0.45;;
59042;SDS011;44826;51.596;5.624;2022-07-06T13:34:21;1.45;;;0.40;;
59042;SDS011;44826;51.596;5.624;2022-07-06T13:36:47;2.22;;;0.40;;
59042;SDS011;44826;51.596;5.624;2022-07-06T13:39:12;1.20;;;0.40;;
59042;SDS011;44826;51.596;5.624;2022-07-06T13:41:38;1.23;;;0.30;;
59042;SDS011;44826;51.596;5.624;2022-07-06T13:44:03;1.33;;;0.32;;
59042;SDS011;44826;51.596;5.624;2022-07-06T13:46:29;1.55;;;0.40;;
59042;SDS011;44826;51.596;5.624;2022-07-06T13:48:56;1.73;;;0.40;;
59042;SDS011;44826;51.596;5.624;2022-07-06T13:51:22;1.08;;;0.40;;
59042;SDS011;44826;51.596;5.624;2022-07-06T13:53:49;1.23;;;0.45;;
59042;SDS011;44826;51.596;5.624;2022-07-06T13:56:14;2.33;;;0.68;;
59042;SDS011;44826;51.596;5.624;2022-07-06T13:58:40;3.10;;;0.52;;
59042;SDS011;44826;51.596;5.624;2022-07-06T14:01:06;0.70;;;0.50;;
59042;SDS011;44826;51.596;5.624;2022-07-06T14:03:31;3.30;;;0.60;;
59042;SDS011;44826;51.596;5.624;2022-07-06T14:05:57;1.15;;;0.50;;
59042;SDS011;44826;51.596;5.624;2022-07-06T14:08:23;2.00;;;0.60;;
59042;SDS011;44826;51.596;5.624;2022-07-06T14:10:50;3.33;;;0.50;;
59042;SDS011;44826;51.596;5.624;2022-07-06T14:13:15;3.25;;;0.40;;
59042;SDS011;44826;51.596;5.624;2022-07-06T14:15:40;4.80;;;0.50;;
59042;SDS011;44826;51.596;5.624;2022-07-06T14:18:05;5.38;;;0.70;;
59042;SDS011;44826;51.596;5.624;2022-07-06T14:20:31;1.77;;;0.60;;
59042;SDS011;44826;51.596;5.624;2022-07-06T14:22:56;1.73;;;0.47;;
59042;SDS011;44826;51.596;5.624;2022-07-06T14:25:21;2.13;;;0.52;;
59042;SDS011;44826;51.596;5.624;2022-07-06T14:27:47;1.02;;;0.60;;
59042;SDS011;44826;51.596;5.624;2022-07-06T14:30:12;5.72;;;0.90;;
59042;SDS011;44826;51.596;5.624;2022-07-06T14:32:37;4.30;;;0.60;;
59042;SDS011;44826;51.596;5.624;2022-07-06T14:35:03;0.95;;;0.50;;
59042;SDS011;44826;51.596;5.624;2022-07-06T14:37:28;2.63;;;0.63;;
59042;SDS011;44826;51.596;5.624;2022-07-06T14:39:54;2.58;;;0.65;;
59042;SDS011;44826;51.596;5.624;2022-07-06T14:42:19;2.33;;;0.60;;
59042;SDS011;44826;51.596;5.624;2022-07-06T14:44:44;1.90;;;0.70;;
59042;SDS011;44826;51.596;5.624;2022-07-06T14:47:09;3.47;;;0.75;;
59042;SDS011;44826;51.596;5.624;2022-07-06T14:49:35;2.50;;;0.75;;
59042;SDS011;44826;51.596;5.624;2022-07-06T14:52:00;2.35;;;0.80;;
59042;SDS011;44826;51.596;5.624;2022-07-06T14:54:25;3.42;;;0.80;;
59042;SDS011;44826;51.596;5.624;2022-07-06T14:56:51;1.83;;;0.65;;
59042;SDS011;44826;51.596;5.624;2022-07-06T14:59:16;1.55;;;0.63;;
59042;SDS011;44826;51.596;5.624;2022-07-06T15:01:42;4.97;;;1.02;;
59042;SDS011;44826;51.596;5.624;2022-07-06T15:04:08;2.90;;;0.90;;
59042;SDS011;44826;51.596;5.624;2022-07-06T15:06:34;1.42;;;0.88;;